createdAt,value
2022-12-20T00:02:10.287Z,0.88
2022-12-20T00:07:25.309Z,0.69
2022-12-20T00:09:58.494Z,0.78
2022-12-20T00:12:29.209Z,0.62
2022-12-20T00:15:09.379Z,0.48
2022-12-20T00:17:43.123Z,0.55
2022-12-20T00:20:17.642Z,0.57
2022-12-20T00:22:48.299Z,0.61
2022-12-20T00:25:22.135Z,0.64
2022-12-20T00:27:53.815Z,0.88
2022-12-20T00:30:27.364Z,0.88
2022-12-20T00:32:57.377Z,0.79
2022-12-20T00:35:28.628Z,0.64
2022-12-20T00:38:02.952Z,0.47
2022-12-20T00:40:33.091Z,0.59
2022-12-20T00:43:04.216Z,0.70
2022-12-20T00:45:41.636Z,0.69
2022-12-20T00:48:19.969Z,0.74
2022-12-20T00:50:47.644Z,0.68
2022-12-20T00:53:24.500Z,0.79
2022-12-20T00:56:07.407Z,0.83
2022-12-20T00:58:45.870Z,0.69
2022-12-20T01:01:35.075Z,0.62
2022-12-20T01:04:09.922Z,0.70
2022-12-20T01:06:48.250Z,0.83
2022-12-20T01:09:32.850Z,0.84
2022-12-20T01:12:03.868Z,0.80
2022-12-20T01:14:36.664Z,0.69
2022-12-20T01:17:06.660Z,0.58
2022-12-20T01:19:37.684Z,0.66
2022-12-20T01:22:08.831Z,0.67
2022-12-20T01:24:46.367Z,0.78
2022-12-20T01:27:17.252Z,0.71
2022-12-20T01:32:36.075Z,0.57
2022-12-20T01:35:24.458Z,0.52
2022-12-20T01:37:58.263Z,0.53
2022-12-20T01:40:42.778Z,0.47
2022-12-20T01:43:18.407Z,0.59
2022-12-20T01:45:57.318Z,0.46
2022-12-20T01:48:28.261Z,0.52
2022-12-20T01:51:02.483Z,0.50
2022-12-20T01:53:30.329Z,0.58
2022-12-20T01:56:06.741Z,0.53
2022-12-20T01:58:43.770Z,0.62
2022-12-20T02:01:22.775Z,0.59
2022-12-20T02:03:56.102Z,0.57
2022-12-20T02:06:30.010Z,0.41
2022-12-20T02:12:16.537Z,0.52
2022-12-20T02:15:14.418Z,0.44
2022-12-20T02:18:19.729Z,0.37
2022-12-20T02:21:18.698Z,0.29
2022-12-20T02:23:47.538Z,0.50
2022-12-20T02:26:53.944Z,0.46
2022-12-20T02:29:49.340Z,0.38
2022-12-20T02:32:34.460Z,0.39
2022-12-20T02:35:08.651Z,0.49
2022-12-20T02:38:02.268Z,0.57
2022-12-20T02:40:51.310Z,0.70
2022-12-20T02:43:44.606Z,0.72
2022-12-20T02:46:17.868Z,0.70
2022-12-20T02:48:51.887Z,0.64
2022-12-20T02:51:30.475Z,0.54
2022-12-20T02:54:22.554Z,0.48
2022-12-20T02:57:00.851Z,0.42
2022-12-20T02:59:56.120Z,0.62
2022-12-20T03:02:30.527Z,0.64
2022-12-20T03:05:16.037Z,0.64
2022-12-20T03:07:46.117Z,0.83
2022-12-20T03:10:20.185Z,0.70
2022-12-20T03:13:02.155Z,0.69
2022-12-20T03:15:39.252Z,0.63
2022-12-20T03:18:11.800Z,0.58
2022-12-20T03:20:43.486Z,0.48
2022-12-20T03:23:14.387Z,0.38
2022-12-20T03:25:46.111Z,0.34
2022-12-20T03:28:32.707Z,0.36
2022-12-20T03:31:06.820Z,0.36
2022-12-20T03:33:52.937Z,0.21
2022-12-20T03:36:27.322Z,0.18
2022-12-20T03:39:05.320Z,0.20
2022-12-20T03:41:43.417Z,0.41
2022-12-20T03:44:16.024Z,0.55
2022-12-20T03:46:56.810Z,0.41
2022-12-20T03:49:28.330Z,0.26
2022-12-20T03:52:07.524Z,0.16
2022-12-20T03:54:38.325Z,0.14
2022-12-20T03:57:25.875Z,0.19
2022-12-20T04:03:10.620Z,0.23
2022-12-20T04:05:44.194Z,0.33
2022-12-20T04:08:12.804Z,0.39
2022-12-20T04:10:59.528Z,0.32
2022-12-20T04:13:35.202Z,0.36
2022-12-20T04:16:14.506Z,0.38
2022-12-20T04:18:54.212Z,0.38
2022-12-20T04:21:42.090Z,0.44
2022-12-20T04:24:35.538Z,0.34
2022-12-20T04:27:27.827Z,0.34
2022-12-20T04:30:18.175Z,0.29
2022-12-20T04:33:15.373Z,-0.08
2022-12-20T04:35:47.977Z,0.40
2022-12-20T04:38:19.351Z,0.44
2022-12-20T04:40:58.063Z,0.21
2022-12-20T04:44:04.950Z,0.25
2022-12-20T04:46:55.497Z,0.32
2022-12-20T04:49:41.648Z,0.32
2022-12-20T04:52:27.431Z,0.39
2022-12-20T04:55:01.651Z,0.45
2022-12-20T04:57:36.371Z,0.32
2022-12-20T05:00:08.754Z,0.21
2022-12-20T05:02:44.020Z,0.15
2022-12-20T05:05:25.259Z,0.34
2022-12-20T05:07:59.567Z,0.21
2022-12-20T05:10:31.658Z,0.34
2022-12-20T05:13:09.561Z,0.26
2022-12-20T05:15:55.254Z,0.33
2022-12-20T05:18:35.783Z,0.24
2022-12-20T05:21:27.751Z,0.11
2022-12-20T05:24:16.436Z,0.06
2022-12-20T05:26:59.166Z,0.13
2022-12-20T05:29:29.661Z,0.08
2022-12-20T05:32:01.182Z,0.08
2022-12-20T05:34:31.368Z,-0.04
2022-12-20T05:37:05.844Z,0.15
2022-12-20T05:42:30.646Z,0.17
2022-12-20T05:45:18.745Z,0.22
2022-12-20T05:47:59.625Z,0.28
2022-12-20T05:50:34.783Z,0.29
2022-12-20T05:53:31.263Z,0.30
2022-12-20T05:56:05.707Z,0.35
2022-12-20T05:58:46.167Z,0.39
2022-12-20T06:01:17.559Z,0.40
2022-12-20T06:03:53.845Z,0.34
2022-12-20T06:06:35.900Z,0.37
2022-12-20T06:09:07.393Z,0.38
2022-12-20T06:11:58.491Z,0.37
2022-12-20T06:14:32.100Z,0.36
2022-12-20T06:17:06.117Z,0.50
2022-12-20T06:19:36.071Z,0.59
2022-12-20T06:22:05.319Z,0.51
2022-12-20T06:24:48.600Z,0.59
2022-12-20T06:27:25.062Z,0.46
2022-12-20T06:30:09.932Z,0.51
2022-12-20T06:32:58.997Z,0.45
2022-12-20T06:35:32.776Z,0.36
2022-12-20T06:38:10.054Z,0.35
2022-12-20T06:40:47.611Z,0.48
2022-12-20T06:43:16.044Z,0.33
2022-12-20T06:45:52.423Z,0.53
2022-12-20T06:53:58.198Z,0.66
2022-12-20T06:56:40.802Z,0.73
2022-12-20T06:59:14.726Z,0.65
2022-12-20T07:01:45.582Z,0.63
2022-12-20T07:04:16.993Z,0.67
2022-12-20T07:07:00.463Z,0.60
2022-12-20T07:09:30.707Z,0.60
2022-12-20T07:12:02.152Z,0.59
2022-12-20T07:14:33.642Z,0.74
2022-12-20T07:17:07.414Z,0.72
2022-12-20T07:19:45.623Z,0.79
2022-12-20T07:22:29.349Z,0.77
2022-12-20T07:25:03.104Z,0.68
2022-12-20T07:27:33.551Z,0.78
2022-12-20T07:30:05.086Z,0.57
2022-12-20T07:32:42.453Z,0.62
2022-12-20T07:35:21.121Z,0.57
2022-12-20T07:37:55.835Z,0.64
2022-12-20T07:40:26.196Z,0.67
2022-12-20T07:42:59.749Z,0.86
2022-12-20T07:48:16.380Z,0.79
2022-12-20T07:50:58.299Z,0.88
2022-12-20T07:53:30.860Z,0.73
2022-12-20T07:56:03.787Z,0.84
2022-12-20T07:58:38.087Z,0.84
2022-12-20T08:01:08.972Z,0.89
2022-12-20T08:04:08.294Z,0.88
2022-12-20T08:06:40.739Z,0.96
2022-12-20T08:09:15.013Z,0.98
2022-12-20T08:11:47.273Z,0.93
2022-12-20T08:14:33.510Z,1.05
2022-12-20T08:17:05.627Z,1.07
2022-12-20T08:19:37.615Z,1.11
2022-12-20T08:22:07.193Z,1.24
2022-12-20T08:27:25.911Z,1.21
2022-12-20T08:29:57.325Z,1.26
2022-12-20T08:32:27.374Z,1.23
2022-12-20T08:37:44.857Z,1.34
2022-12-20T08:40:18.666Z,1.40
2022-12-20T08:43:06.546Z,1.64
2022-12-20T08:45:49.087Z,1.54
2022-12-20T08:48:26.069Z,1.50
2022-12-20T08:51:03.393Z,1.59
2022-12-20T08:53:41.089Z,1.52
2022-12-20T08:56:20.058Z,1.63
2022-12-20T08:58:53.483Z,1.74
2022-12-20T09:01:23.924Z,1.70
2022-12-20T09:04:04.300Z,1.63
2022-12-20T09:06:34.798Z,1.80
2022-12-20T09:09:15.640Z,1.67
2022-12-20T09:11:48.763Z,1.54
2022-12-20T09:14:29.630Z,1.51
2022-12-20T09:17:05.226Z,1.58
2022-12-20T09:19:36.866Z,1.75
2022-12-20T09:22:09.944Z,1.68
2022-12-20T09:24:44.766Z,1.62
2022-12-20T09:27:18.603Z,1.67
2022-12-20T09:29:53.973Z,1.69
2022-12-20T09:32:27.892Z,1.59
2022-12-20T09:34:58.115Z,1.64
2022-12-20T09:37:36.651Z,1.58
2022-12-20T09:40:07.438Z,1.63
2022-12-20T09:42:45.334Z,1.66
2022-12-20T09:45:26.668Z,1.65
2022-12-20T09:47:59.759Z,1.83
2022-12-20T09:50:47.203Z,1.86
2022-12-20T09:53:29.493Z,1.89
2022-12-20T09:56:12.121Z,1.76
2022-12-20T09:59:09.212Z,1.77
2022-12-20T10:01:44.166Z,1.59
2022-12-20T10:04:34.188Z,1.76
2022-12-20T10:07:58.813Z,1.71
2022-12-20T10:10:32.415Z,1.59
2022-12-20T10:13:34.059Z,1.46
2022-12-20T10:16:34.696Z,1.67
2022-12-20T10:19:53.144Z,1.74
2022-12-20T10:22:27.164Z,1.62
2022-12-20T10:25:05.320Z,1.58
2022-12-20T10:27:41.802Z,1.65
2022-12-20T10:30:22.471Z,1.67
2022-12-20T10:32:53.896Z,1.64
2022-12-20T10:35:43.312Z,1.77
2022-12-20T10:38:20.136Z,1.86
2022-12-20T10:41:23.067Z,1.90
2022-12-20T10:44:06.282Z,2.01
2022-12-20T10:47:03.011Z,1.94
2022-12-20T10:49:44.459Z,1.76
2022-12-20T10:52:19.909Z,1.72
2022-12-20T10:54:49.612Z,1.75
2022-12-20T10:57:39.226Z,1.82
2022-12-20T11:00:11.546Z,1.94
2022-12-20T11:02:43.105Z,1.83
2022-12-20T11:05:25.920Z,1.78
2022-12-20T11:08:44.367Z,1.91
2022-12-20T11:11:32.687Z,2.30
2022-12-20T11:14:18.103Z,2.16
2022-12-20T11:16:54.024Z,1.90
2022-12-20T11:20:14.175Z,1.92
2022-12-20T11:23:08.591Z,2.08
2022-12-20T11:26:05.533Z,2.06
2022-12-20T11:28:54.624Z,2.03
2022-12-20T11:32:04.766Z,2.07
2022-12-20T11:35:29.021Z,2.17
2022-12-20T11:39:10.685Z,2.18
2022-12-20T11:41:57.142Z,2.27
2022-12-20T11:45:09.711Z,2.07
2022-12-20T11:48:18.893Z,1.99
2022-12-20T11:51:13.371Z,1.97
2022-12-20T11:54:18.288Z,2.10
2022-12-20T11:56:58.976Z,2.05
2022-12-20T12:00:11.245Z,2.17
2022-12-20T12:03:24.882Z,2.21
2022-12-20T12:06:03.674Z,2.20
2022-12-20T12:09:02.945Z,2.25
2022-12-20T12:15:16.110Z,2.34
2022-12-20T12:18:19.587Z,2.18
2022-12-20T12:21:09.856Z,2.19
2022-12-20T12:24:27.741Z,2.30
2022-12-20T12:27:11.287Z,2.28
2022-12-20T12:29:50.729Z,2.29
2022-12-20T12:32:50.780Z,2.29
2022-12-20T12:35:40.108Z,2.34
2022-12-20T12:38:46.470Z,2.27
2022-12-20T12:41:49.968Z,2.27
2022-12-20T12:44:49.396Z,2.48
2022-12-20T12:47:48.914Z,2.37
2022-12-20T12:50:39.781Z,2.44
2022-12-20T12:53:28.114Z,2.44
2022-12-20T12:56:19.394Z,2.40
2022-12-20T12:59:12.060Z,2.46
2022-12-20T13:02:20.368Z,2.49
2022-12-20T13:05:24.003Z,2.50
2022-12-20T13:07:56.637Z,2.40
2022-12-20T13:10:37.696Z,2.48
2022-12-20T13:13:17.804Z,2.51
2022-12-20T13:15:55.814Z,2.52
2022-12-20T13:18:31.799Z,2.53
2022-12-20T13:21:29.490Z,2.59
2022-12-20T13:24:38.191Z,2.67
2022-12-20T13:27:45.167Z,2.61
2022-12-20T13:30:25.469Z,2.60
2022-12-20T13:33:07.258Z,2.69
2022-12-20T13:36:09.937Z,2.62
2022-12-20T13:38:40.931Z,2.66
2022-12-20T13:41:51.653Z,2.70
2022-12-20T13:44:40.627Z,2.62
2022-12-20T13:47:40.500Z,2.68
2022-12-20T13:50:36.542Z,2.62
2022-12-20T13:53:05.730Z,2.72
2022-12-20T13:55:46.748Z,2.76
2022-12-20T13:58:31.896Z,2.76
2022-12-20T14:01:26.553Z,2.76
2022-12-20T14:04:00.372Z,2.74
2022-12-20T14:06:31.463Z,2.59
2022-12-20T14:09:06.533Z,2.66
2022-12-20T14:11:47.467Z,2.87
2022-12-20T14:14:18.899Z,2.87
2022-12-20T14:16:50.188Z,2.90
2022-12-20T14:19:24.390Z,2.76
2022-12-20T14:21:58.975Z,2.70
2022-12-20T14:24:30.717Z,2.49
2022-12-20T14:29:49.617Z,2.44
2022-12-20T14:32:34.183Z,2.58
2022-12-20T14:35:08.366Z,2.59
2022-12-20T14:37:39.177Z,2.45
2022-12-20T14:40:22.280Z,2.36
2022-12-20T14:42:52.770Z,2.20
2022-12-20T14:45:33.789Z,2.46
2022-12-20T14:48:25.543Z,2.49
2022-12-20T14:51:04.534Z,2.47
2022-12-20T14:53:39.610Z,2.50
2022-12-20T14:56:23.827Z,2.51
2022-12-20T14:59:32.609Z,2.43
2022-12-20T15:02:35.479Z,2.39
2022-12-20T15:06:01.442Z,2.54
2022-12-20T15:08:34.128Z,2.63
2022-12-20T15:11:32.325Z,2.65
2022-12-20T15:14:05.099Z,2.42
2022-12-20T15:16:34.070Z,2.53
2022-12-20T15:19:06.376Z,2.47
2022-12-20T15:21:43.092Z,2.55
2022-12-20T15:24:19.959Z,2.60
2022-12-20T15:26:58.904Z,2.53
2022-12-20T15:29:39.228Z,2.47
2022-12-20T15:32:24.064Z,2.45
2022-12-20T15:34:54.748Z,2.53
2022-12-20T15:37:37.237Z,2.41
2022-12-20T15:40:07.820Z,2.63
2022-12-20T15:42:46.899Z,2.64
2022-12-20T15:45:16.971Z,2.62
2022-12-20T15:47:47.226Z,2.61
2022-12-20T15:50:32.257Z,2.69
2022-12-20T15:53:05.786Z,2.77
2022-12-20T15:55:39.936Z,2.78
2022-12-20T15:58:12.521Z,2.63
2022-12-20T16:03:36.657Z,2.53
2022-12-20T16:06:08.924Z,2.56
2022-12-20T16:08:41.716Z,2.59
2022-12-20T16:11:30.533Z,2.59
2022-12-20T16:14:00.802Z,2.62
2022-12-20T16:16:40.312Z,2.66
2022-12-20T16:19:18.577Z,2.69
2022-12-20T16:21:55.615Z,2.71
2022-12-20T16:24:27.262Z,2.74
2022-12-20T16:26:57.795Z,2.77
2022-12-20T16:29:28.268Z,2.77
2022-12-20T16:32:07.299Z,2.81
2022-12-20T16:34:53.335Z,2.77
2022-12-20T16:37:30.218Z,2.73
2022-12-20T16:40:03.502Z,2.77
2022-12-20T16:42:34.766Z,2.76
2022-12-20T16:45:11.019Z,2.80
2022-12-20T16:47:55.373Z,2.77
2022-12-20T16:50:27.800Z,2.82
2022-12-20T16:52:58.560Z,2.84
2022-12-20T16:55:39.761Z,2.85
2022-12-20T16:58:10.795Z,2.84
2022-12-20T17:00:44.338Z,2.77
2022-12-20T17:03:12.100Z,2.72
2022-12-20T17:05:46.522Z,2.72
2022-12-20T17:11:09.044Z,2.76
2022-12-20T17:16:24.698Z,2.78
2022-12-20T17:19:02.675Z,2.70
2022-12-20T17:24:37.907Z,2.79
2022-12-20T17:27:19.770Z,2.77
2022-12-20T17:29:50.052Z,2.74
2022-12-20T17:32:32.369Z,2.73
2022-12-20T17:35:02.968Z,2.80
2022-12-20T17:37:35.741Z,2.83
2022-12-20T17:40:10.916Z,2.85
2022-12-20T17:42:44.125Z,2.90
2022-12-20T17:45:37.619Z,2.87
2022-12-20T17:48:10.329Z,2.85
2022-12-20T17:50:43.619Z,2.79
2022-12-20T17:53:17.207Z,2.83
2022-12-20T17:55:47.812Z,2.76
2022-12-20T17:58:18.281Z,2.84
2022-12-20T18:00:46.584Z,2.88
2022-12-20T18:04:01.675Z,2.92
2022-12-20T18:06:27.169Z,2.90
2022-12-20T18:09:05.635Z,2.94
2022-12-20T18:11:41.006Z,2.85
2022-12-20T18:14:26.789Z,2.90
2022-12-20T18:17:02.302Z,2.87
2022-12-20T18:19:46.103Z,2.87
2022-12-20T18:22:21.783Z,2.88
2022-12-20T18:24:53.257Z,2.86
2022-12-20T18:27:28.676Z,2.88
2022-12-20T18:30:12.920Z,2.90
2022-12-20T18:32:55.653Z,2.91
2022-12-20T18:35:26.176Z,2.92
2022-12-20T18:37:56.757Z,2.91
2022-12-20T18:40:30.447Z,2.92
2022-12-20T18:43:05.854Z,2.89
2022-12-20T18:45:35.845Z,2.86
2022-12-20T18:48:06.096Z,2.90
2022-12-20T18:50:41.084Z,2.93
2022-12-20T18:53:09.217Z,3.00
2022-12-20T18:55:45.860Z,2.95
2022-12-20T18:58:14.445Z,2.99
2022-12-20T19:00:47.452Z,2.86
2022-12-20T19:03:18.963Z,2.84
2022-12-20T19:05:58.935Z,2.85
2022-12-20T19:08:35.750Z,2.83
2022-12-20T19:11:16.711Z,2.84
2022-12-20T19:13:45.124Z,2.97
2022-12-20T19:16:22.495Z,2.90
2022-12-20T19:18:59.540Z,2.81
2022-12-20T19:21:31.271Z,2.70
2022-12-20T19:24:10.042Z,2.91
2022-12-20T19:26:40.243Z,2.84
2022-12-20T19:29:15.590Z,2.79
2022-12-20T19:31:47.882Z,2.93
2022-12-20T19:34:18.661Z,2.84
2022-12-20T19:36:52.363Z,2.87
2022-12-20T19:39:25.640Z,2.92
2022-12-20T19:44:52.558Z,2.82
2022-12-20T19:47:35.329Z,2.95
2022-12-20T19:50:11.605Z,2.94
2022-12-20T19:52:45.202Z,2.91
2022-12-20T19:55:14.540Z,2.94
2022-12-20T19:57:46.024Z,2.94
2022-12-20T20:00:16.759Z,2.95
2022-12-20T20:02:52.716Z,3.02
2022-12-20T20:05:33.747Z,2.97
2022-12-20T20:08:04.934Z,2.96
2022-12-20T20:10:42.735Z,2.93
2022-12-20T20:13:10.707Z,2.93
2022-12-20T20:15:39.488Z,2.98
2022-12-20T20:18:09.492Z,2.96
2022-12-20T20:20:41.834Z,2.89
2022-12-20T20:23:12.441Z,3.03
2022-12-20T20:25:59.569Z,3.01
2022-12-20T20:28:33.950Z,3.05
2022-12-20T20:31:10.119Z,3.03
2022-12-20T20:33:46.955Z,2.96
2022-12-20T20:36:34.461Z,3.09
2022-12-20T20:39:08.600Z,3.09
2022-12-20T20:41:53.411Z,3.06
2022-12-20T20:44:27.470Z,3.10
2022-12-20T20:46:58.630Z,3.14
2022-12-20T20:49:33.618Z,3.09
2022-12-20T20:52:01.494Z,3.11
2022-12-20T20:54:31.830Z,3.00
2022-12-20T20:57:03.695Z,3.10
2022-12-20T20:59:36.482Z,3.08
2022-12-20T21:05:24.605Z,3.09
2022-12-20T21:07:48.280Z,3.09
2022-12-20T21:10:23.399Z,3.13
2022-12-20T21:13:07.302Z,3.17
2022-12-20T21:15:45.063Z,3.02
2022-12-20T21:18:16.937Z,3.10
2022-12-20T21:20:53.059Z,2.96
2022-12-20T21:26:10.982Z,3.12
2022-12-20T21:28:49.542Z,3.06
2022-12-20T21:31:26.703Z,3.16
2022-12-20T21:33:59.153Z,3.09
2022-12-20T21:36:29.684Z,3.00
2022-12-20T21:39:00.839Z,3.08
2022-12-20T21:41:37.808Z,3.11
2022-12-20T21:44:19.829Z,3.12
2022-12-20T21:46:54.106Z,3.07
2022-12-20T21:49:27.112Z,3.09
2022-12-20T21:52:03.225Z,3.04
2022-12-20T21:54:35.852Z,3.18
2022-12-20T21:57:06.269Z,3.19
2022-12-20T21:59:40.995Z,3.11
2022-12-20T22:02:11.466Z,3.10
2022-12-20T22:04:40.987Z,3.12
2022-12-20T22:07:11.942Z,3.17
2022-12-20T22:09:42.901Z,3.22
2022-12-20T22:12:13.999Z,3.17
2022-12-20T22:14:45.598Z,3.10
2022-12-20T22:17:19.167Z,3.14
2022-12-20T22:19:53.107Z,3.13
2022-12-20T22:22:32.473Z,3.15
2022-12-20T22:25:03.678Z,3.17
2022-12-20T22:27:42.610Z,3.16
2022-12-20T22:30:29.703Z,3.14
2022-12-20T22:33:03.963Z,3.12
2022-12-20T22:35:43.283Z,3.12
2022-12-20T22:38:13.877Z,3.12
2022-12-20T22:40:52.848Z,3.08
2022-12-20T22:43:22.873Z,3.13
2022-12-20T22:46:09.589Z,3.10
2022-12-20T22:48:47.980Z,3.13
2022-12-20T22:51:32.384Z,3.13
2022-12-20T22:54:02.934Z,3.06
2022-12-20T22:59:17.805Z,3.17
2022-12-20T23:02:00.623Z,3.20
2022-12-20T23:04:32.973Z,3.22
2022-12-20T23:07:04.359Z,3.17
2022-12-20T23:09:38.286Z,3.23
2022-12-20T23:12:24.912Z,3.28
2022-12-20T23:15:14.253Z,3.19
2022-12-20T23:17:44.668Z,3.22
2022-12-20T23:20:33.953Z,3.26
2022-12-20T23:25:57.064Z,3.17
2022-12-20T23:28:31.505Z,3.18
2022-12-20T23:31:05.899Z,3.25
2022-12-20T23:33:37.381Z,3.28
2022-12-20T23:36:07.928Z,3.25
2022-12-20T23:38:43.633Z,3.25
2022-12-20T23:41:18.886Z,3.26
2022-12-20T23:43:49.235Z,3.27
2022-12-20T23:46:23.944Z,3.30
2022-12-20T23:49:03.563Z,3.29
2022-12-20T23:51:31.547Z,3.21
2022-12-20T23:54:09.296Z,3.19
2022-12-20T23:56:37.553Z,3.19
2022-12-20T23:59:08.962Z,3.17
